Time;durP1;ratioP1;P1;durP2;ratioP2;P2;SDS_P1;SDS_P2;PMS_P1;PMS_P2;Temp;Humidity;BMP_temperature;BMP_pressure;BME280_temperature;BME280_humidity;BME280_pressure;Samples;Min_cycle;Max_cycle;Signal;HPM_P1;HPM_P2
2023/03/19 00:01:47;;;;;;;19.80;11.33;;;;;;;3.62;82.85;101258.19;1705181;83;20992;-59
2023/03/19 00:04:16;;;;;;;21.25;11.68;;;;;;;3.60;82.86;101258.81;1699507;84;21095;-59
2023/03/19 00:06:45;;;;;;;20.05;10.85;;;;;;;3.60;82.93;101256.95;1695554;85;20996;-60
2023/03/19 00:09:16;;;;;;;18.80;10.28;;;;;;;3.62;82.92;101254.11;1695630;84;21499;-59
2023/03/19 00:11:45;;;;;;;18.25;10.10;;;;;;;3.64;82.89;101254.34;1695311;85;21463;-60
2023/03/19 00:14:15;;;;;;;18.12;9.98;;;;;;;3.67;82.86;101244.59;1695351;84;21067;-60
2023/03/19 00:16:45;;;;;;;17.75;10.50;;;;;;;3.69;82.86;101245.81;1665148;85;21060;-60
2023/03/19 00:19:14;;;;;;;19.82;10.15;;;;;;;3.72;82.84;101236.06;1705304;84;21099;-59
2023/03/19 00:21:45;;;;;;;17.57;10.25;;;;;;;3.71;82.86;101235.20;1705584;83;21027;-60
2023/03/19 00:24:16;;;;;;;19.73;9.73;;;;;;;3.72;82.72;101234.71;1705486;83;21977;-59
2023/03/19 00:26:44;;;;;;;19.80;10.18;;;;;;;3.70;82.63;101233.98;1666647;84;21052;-59
2023/03/19 00:29:16;;;;;;;19.23;10.28;;;;;;;3.70;82.58;101235.34;1664162;85;21056;-59
2023/03/19 00:31:45;;;;;;;20.80;10.10;;;;;;;3.73;82.58;101228.30;1666388;85;21082;-59
2023/03/19 00:34:17;;;;;;;18.55;10.60;;;;;;;3.74;82.55;101218.68;1667275;85;21083;-60
2023/03/19 00:36:46;;;;;;;23.30;11.40;;;;;;;3.74;82.55;101216.47;1665868;85;21552;-59
2023/03/19 00:39:16;;;;;;;23.50;10.00;;;;;;;3.76;82.55;101215.84;1664985;85;21083;-60
2023/03/19 00:41:49;;;;;;;16.80;10.05;;;;;;;3.77;82.58;101218.91;1661475;85;21596;-61
2023/03/19 00:44:18;;;;;;;20.55;10.25;;;;;;;3.78;82.61;101215.20;1665807;85;21095;-60
2023/03/19 00:46:49;;;;;;;18.00;9.83;;;;;;;3.79;82.56;101209.65;1664521;85;21028;-61
2023/03/19 00:49:18;;;;;;;18.23;9.70;;;;;;;3.80;82.44;101219.50;1663574;85;21121;-60
2023/03/19 00:51:48;;;;;;;17.15;9.90;;;;;;;3.79;82.34;101219.63;1665086;85;21041;-59
2023/03/19 00:54:18;;;;;;;15.32;9.35;;;;;;;3.76;82.35;101218.55;1705694;84;21087;-60
2023/03/19 00:56:47;;;;;;;15.15;9.40;;;;;;;3.75;82.35;101212.27;1705409;84;21051;-59
2023/03/19 00:59:15;;;;;;;20.50;10.25;;;;;;;3.76;82.43;101209.92;1662027;85;21040;-59
2023/03/19 01:01:45;;;;;;;19.48;9.48;;;;;;;3.77;82.47;101209.42;1659943;85;21083;-61
2023/03/19 01:04:15;;;;;;;17.20;9.80;;;;;;;3.79;82.49;101211.50;1695195;84;21549;-61
2023/03/19 01:06:44;;;;;;;16.67;9.40;;;;;;;3.81;82.42;101209.52;1663036;85;21119;-60
2023/03/19 01:09:13;;;;;;;16.85;9.10;;;;;;;3.81;82.38;101209.02;1705631;84;21169;-60
2023/03/19 01:11:43;;;;;;;18.57;9.68;;;;;;;3.83;82.41;101208.89;1665215;85;21079;-60
2023/03/19 01:14:16;;;;;;;18.40;10.72;;;;;;;3.83;82.40;101210.24;1651327;85;21480;-59
2023/03/19 01:16:45;;;;;;;20.37;10.90;;;;;;;3.82;82.28;101211.23;1665308;85;21510;-59
2023/03/19 01:19:15;;;;;;;16.32;8.80;;;;;;;3.78;82.24;101197.59;1665285;85;21054;-59
2023/03/19 01:21:45;;;;;;;17.35;9.30;;;;;;;3.79;82.16;101204.73;1663687;84;21036;-59
2023/03/19 01:24:16;;;;;;;16.73;9.30;;;;;;;3.78;82.04;101200.30;1662285;84;21036;-59
2023/03/19 01:26:49;;;;;;;16.75;9.58;;;;;;;3.74;81.90;101201.06;1705672;84;21074;-60
2023/03/19 01:29:32;;;;;;;14.53;8.08;;;;;;;3.70;81.86;101201.47;1705422;84;21028;-60
2023/03/19 01:32:05;;;;;;;13.72;8.15;;;;;;;3.68;81.75;101202.09;1665002;85;21051;-60
2023/03/19 01:34:48;;;;;;;14.33;8.00;;;;;;;3.63;81.69;101205.70;1694103;84;21107;-60
2023/03/19 01:37:18;;;;;;;12.93;7.53;;;;;;;3.57;81.63;101196.25;1666124;84;21099;-61
2023/03/19 01:39:47;;;;;;;14.35;7.65;;;;;;;3.53;81.50;101192.09;1662802;84;21003;-58
2023/03/19 01:42:15;;;;;;;14.65;8.28;;;;;;;3.49;81.38;101195.56;1663827;85;21019;-61
2023/03/19 01:44:52;;;;;;;12.53;7.65;;;;;;;3.45;81.38;101204.09;1666735;84;21064;-61
2023/03/19 01:47:38;;;;;;;13.10;6.75;;;;;;;3.39;81.36;101201.91;1621470;86;21512;-59
2023/03/19 01:50:37;;;;;;;12.40;6.78;;;;;;;3.34;81.33;101206.37;1645523;86;21024;-60
2023/03/19 01:53:15;;;;;;;12.25;7.35;;;;;;;3.26;81.20;101203.45;1661158;85;21517;-59
2023/03/19 01:55:47;;;;;;;11.22;6.58;;;;;;;3.18;81.26;101200.02;1664817;85;21083;-59
2023/03/19 01:58:40;;;;;;;13.13;6.90;;;;;;;3.10;81.15;101206.58;1662850;84;21036;-60
2023/03/19 02:01:13;;;;;;;12.53;6.53;;;;;;;3.05;81.25;101202.54;1662658;84;21076;-60
2023/03/19 02:03:42;;;;;;;16.55;7.17;;;;;;;3.00;81.29;101205.64;1685718;84;21043;-60
2023/03/19 02:06:18;;;;;;;13.93;7.20;;;;;;;2.94;81.28;101203.45;1665572;85;21052;-59
2023/03/19 02:08:49;;;;;;;13.18;7.22;;;;;;;2.85;81.35;101205.58;1665701;85;21447;-60
2023/03/19 02:11:19;;;;;;;12.90;6.42;;;;;;;2.79;81.38;101211.50;1663627;85;21083;-59
2023/03/19 02:13:49;;;;;;;11.95;6.75;;;;;;;2.74;81.39;101213.73;1651672;85;21111;-60
2023/03/19 02:16:19;;;;;;;10.38;6.00;;;;;;;2.67;81.43;101216.08;1666750;85;21087;-59
2023/03/19 02:18:50;;;;;;;11.45;6.28;;;;;;;2.61;81.49;101217.08;1665482;85;21064;-59
2023/03/19 02:21:21;;;;;;;12.45;6.25;;;;;;;2.55;81.64;101218.42;1651263;85;21099;-59
2023/03/19 02:24:08;;;;;;;16.40;7.30;;;;;;;2.51;81.71;101222.36;1669031;84;21459;-61
2023/03/19 02:26:45;;;;;;;10.45;6.45;;;;;;;2.45;81.80;101218.80;1671621;85;21479;-60
2023/03/19 02:29:15;;;;;;;12.95;7.28;;;;;;;2.41;81.89;101225.45;1668712;85;21566;-59
2023/03/19 02:31:46;;;;;;;11.97;7.00;;;;;;;2.39;81.97;101224.72;1665034;85;21039;-60
2023/03/19 02:34:27;;;;;;;16.48;6.72;;;;;;;2.37;82.03;101227.55;1666092;85;21059;-59
2023/03/19 02:37:17;;;;;;;10.88;6.40;;;;;;;2.34;82.05;101228.28;1664244;85;21040;-59
2023/03/19 02:40:03;;;;;;;8.83;5.47;;;;;;;2.33;82.09;101232.83;1662092;85;21023;-60
2023/03/19 02:42:31;;;;;;;9.00;5.62;;;;;;;2.29;82.12;101231.85;1662430;85;21091;-59
2023/03/19 02:45:00;;;;;;;10.10;5.42;;;;;;;2.25;82.28;101233.95;1664482;85;21040;-59
2023/03/19 02:47:31;;;;;;;10.08;4.97;;;;;;;2.23;82.38;101231.86;1664674;84;21051;-61
2023/03/19 02:50:00;;;;;;;10.78;6.00;;;;;;;2.22;82.52;101239.60;1665039;85;21091;-60
2023/03/19 02:52:31;;;;;;;10.08;5.20;;;;;;;2.18;82.66;101238.98;1695090;84;21514;-59
2023/03/19 02:55:00;;;;;;;9.25;5.67;;;;;;;2.17;82.76;101244.03;1695024;85;21044;-59
2023/03/19 02:57:30;;;;;;;8.65;5.12;;;;;;;2.17;82.85;101239.97;1695273;85;21032;-60
2023/03/19 03:00:00;;;;;;;9.68;5.30;;;;;;;2.17;82.91;101243.17;1694923;85;21456;-59
2023/03/19 03:02:31;;;;;;;10.32;5.87;;;;;;;2.13;82.89;101241.70;1695066;84;21035;-60
2023/03/19 03:05:00;;;;;;;15.68;6.37;;;;;;;2.08;83.01;101247.47;1671003;85;21583;-59
2023/03/19 03:07:30;;;;;;;12.65;6.95;;;;;;;2.06;83.12;101251.28;1705567;84;21130;-60
2023/03/19 03:10:01;;;;;;;15.20;7.58;;;;;;;2.03;83.16;101239.36;1705893;84;21110;-60
2023/03/19 03:12:31;;;;;;;13.95;8.03;;;;;;;2.00;83.22;101243.66;1705620;83;21452;-60
2023/03/19 03:15:02;;;;;;;16.67;7.67;;;;;;;1.97;83.22;101246.11;1674641;85;21103;-59
2023/03/19 03:17:32;;;;;;;12.85;6.75;;;;;;;1.97;83.30;101245.25;1705203;84;21083;-59
2023/03/19 03:20:06;;;;;;;13.85;7.55;;;;;;;1.98;83.40;101245.62;1705396;83;21115;-60
2023/03/19 03:22:35;;;;;;;14.33;7.72;;;;;;;2.00;83.53;101247.22;1705711;83;21028;-59
2023/03/19 03:25:05;;;;;;;15.95;7.55;;;;;;;2.01;83.69;101252.99;1674232;84;21064;-59
2023/03/19 03:27:36;;;;;;;13.48;8.00;;;;;;;2.04;83.78;101253.23;1705609;84;21043;-60
2023/03/19 03:30:07;;;;;;;16.02;9.15;;;;;;;2.03;83.92;101254.22;1705904;83;21071;-58
2023/03/19 03:32:36;;;;;;;19.82;9.43;;;;;;;2.06;84.04;101245.88;1705575;83;21071;-60
2023/03/19 03:35:07;;;;;;;16.52;9.45;;;;;;;2.06;84.13;101246.73;1706655;83;21007;-58
2023/03/19 03:37:37;;;;;;;15.63;9.33;;;;;;;2.09;84.25;101249.19;1675642;85;21078;-60
2023/03/19 03:40:09;;;;;;;14.70;9.03;;;;;;;2.13;84.37;101243.05;1676846;85;21303;-59
2023/03/19 03:42:38;;;;;;;17.62;9.03;;;;;;;2.15;84.51;101250.05;1708989;84;21071;-60
2023/03/19 03:45:09;;;;;;;16.52;9.95;;;;;;;2.19;84.62;101247.47;1708132;83;21036;-59
2023/03/19 03:47:39;;;;;;;16.75;8.93;;;;;;;2.23;84.65;101247.59;1676547;85;21099;-60
2023/03/19 03:50:10;;;;;;;18.05;9.75;;;;;;;2.28;84.62;101243.66;1706204;83;21063;-61
2023/03/19 03:52:39;;;;;;;16.90;10.08;;;;;;;2.31;84.58;101245.62;1705991;83;21079;-59
2023/03/19 03:55:10;;;;;;;19.80;10.38;;;;;;;2.33;84.65;101249.06;1705421;84;21106;-60
2023/03/19 03:57:39;;;;;;;20.02;10.48;;;;;;;2.35;84.70;101248.94;1705456;83;21027;-60
2023/03/19 04:00:12;;;;;;;19.23;11.22;;;;;;;2.34;84.80;101241.80;1706797;83;21056;-59
2023/03/19 04:02:42;;;;;;;19.25;11.73;;;;;;;2.35;84.94;101240.83;1705862;83;21068;-59
2023/03/19 04:05:14;;;;;;;20.92;11.30;;;;;;;2.36;85.00;101245.25;1704850;83;21107;-60
2023/03/19 04:07:42;;;;;;;22.07;11.60;;;;;;;2.38;85.11;101242.78;1691752;84;21099;-59
2023/03/19 04:10:12;;;;;;;20.12;11.93;;;;;;;2.40;85.11;101239.95;1705314;84;21043;-61
2023/03/19 04:12:41;;;;;;;23.15;12.07;;;;;;;2.40;85.08;101238.11;1705495;83;21439;-60
2023/03/19 04:15:13;;;;;;;25.25;12.60;;;;;;;2.42;85.22;101237.98;1705599;83;21718;-59
2023/03/19 04:17:44;;;;;;;27.02;13.98;;;;;;;2.40;85.19;101236.76;1705715;84;21091;-61
2023/03/19 04:20:17;;;;;;;25.08;14.10;;;;;;;2.41;85.32;101238.97;1705255;84;21039;-60
2023/03/19 04:22:47;;;;;;;26.97;13.45;;;;;;;2.45;85.38;101236.38;1705408;84;20996;-60
2023/03/19 04:25:16;;;;;;;27.25;13.93;;;;;;;2.48;85.39;101237.48;1705750;84;21039;-59
2023/03/19 04:27:45;;;;;;;25.88;14.25;;;;;;;2.50;85.43;101232.81;1705386;84;21117;-59
2023/03/19 04:30:15;;;;;;;25.05;13.75;;;;;;;2.54;85.48;101230.22;1705453;83;21936;-60
2023/03/19 04:32:47;;;;;;;25.90;13.70;;;;;;;2.58;85.57;101230.83;1705294;83;21015;-61
2023/03/19 04:35:17;;;;;;;27.32;14.25;;;;;;;2.60;85.63;101231.10;1705464;83;21495;-59
2023/03/19 04:37:47;;;;;;;27.15;15.23;;;;;;;2.65;85.67;101228.88;1705438;84;21534;-60
2023/03/19 04:40:17;;;;;;;27.07;14.80;;;;;;;2.68;85.72;101227.77;1705772;83;21052;-58
2023/03/19 04:42:46;;;;;;;27.55;14.15;;;;;;;2.71;85.77;101230.22;1685591;84;21051;-59
2023/03/19 04:45:16;;;;;;;27.30;14.20;;;;;;;2.74;85.69;101225.91;1704344;83;21000;-60
2023/03/19 04:47:46;;;;;;;27.82;14.35;;;;;;;2.75;85.72;101231.19;1705337;83;21052;-59
2023/03/19 04:50:16;;;;;;;25.25;14.78;;;;;;;2.79;85.82;101227.24;1705703;83;21072;-60
2023/03/19 04:52:46;;;;;;;31.35;15.30;;;;;;;2.83;85.88;101224.64;1705560;83;21031;-59
2023/03/19 04:55:17;;;;;;;27.13;14.95;;;;;;;2.83;85.79;101230.06;1705274;83;21420;-59
2023/03/19 04:57:53;;;;;;;31.77;17.00;;;;;;;2.86;85.83;101230.30;1691640;84;21056;-60
2023/03/19 05:00:25;;;;;;;28.12;16.27;;;;;;;2.90;85.79;101236.31;1705109;84;21460;-60
2023/03/19 05:02:56;;;;;;;32.10;16.67;;;;;;;2.93;85.69;101232.00;1705423;83;21482;-60
2023/03/19 05:05:25;;;;;;;29.35;17.48;;;;;;;2.98;85.67;101228.41;1705404;82;21090;-60
2023/03/19 05:07:54;;;;;;;33.18;17.32;;;;;;;3.02;85.62;101229.87;1705709;84;21055;-59
2023/03/19 05:10:23;;;;;;;34.65;18.73;;;;;;;3.04;85.47;101222.48;1705584;83;21114;-60
2023/03/19 05:12:53;;;;;;;32.78;17.30;;;;;;;3.05;85.40;101235.89;1705120;84;21027;-59
2023/03/19 05:15:23;;;;;;;33.75;18.15;;;;;;;3.08;85.40;101233.42;1705306;83;21050;-60
2023/03/19 05:17:54;;;;;;;32.30;17.52;;;;;;;3.11;85.34;101234.02;1704983;84;21024;-61
2023/03/19 05:20:26;;;;;;;37.78;18.80;;;;;;;3.16;85.36;101230.92;1705417;83;21444;-59
2023/03/19 05:22:58;;;;;;;37.55;18.82;;;;;;;3.18;85.30;101232.52;1704921;84;21387;-60
2023/03/19 05:25:39;;;;;;;33.48;18.55;;;;;;;3.24;85.34;101232.98;1705244;84;21503;-60
2023/03/19 05:28:11;;;;;;;34.13;18.80;;;;;;;3.30;85.30;101229.29;1705548;84;21074;-60
2023/03/19 05:30:40;;;;;;;32.83;18.75;;;;;;;3.33;85.22;101231.73;1705575;84;21525;-60
2023/03/19 05:33:15;;;;;;;35.83;17.77;;;;;;;3.33;85.06;101224.97;1695027;84;21059;-59
2023/03/19 05:35:45;;;;;;;35.17;19.35;;;;;;;3.33;84.91;101231.73;1705372;84;21055;-58
2023/03/19 05:38:17;;;;;;;37.73;19.70;;;;;;;3.36;84.92;101230.13;1705132;84;21043;-60
2023/03/19 05:40:49;;;;;;;41.50;20.55;;;;;;;3.41;84.96;101231.08;1705037;84;21055;-59
2023/03/19 05:43:26;;;;;;;35.40;20.05;;;;;;;3.48;84.87;101230.92;1703819;84;21055;-59
2023/03/19 05:45:56;;;;;;;36.33;20.27;;;;;;;3.57;84.75;101223.84;1685470;84;21095;-59
2023/03/19 05:48:27;;;;;;;38.50;21.02;;;;;;;3.64;84.67;101225.89;1705553;84;21246;-60
2023/03/19 05:51:00;;;;;;;28.05;14.93;;;;;;;3.68;84.42;101220.57;1705307;84;21489;-60
2023/03/19 05:53:31;;;;;;;28.60;16.00;;;;;;;3.72;84.04;101222.02;1705129;84;21035;-60
2023/03/19 05:56:20;;;;;;;32.63;16.12;;;;;;;3.78;83.68;101225.55;1705794;83;21024;-59
2023/03/19 05:58:52;;;;;;;27.07;15.28;;;;;;;3.83;83.36;101221.94;1636468;84;21027;-60
2023/03/19 06:01:22;;;;;;;30.08;16.17;;;;;;;3.88;82.98;101222.89;1705232;84;21015;-60
2023/03/19 06:03:51;;;;;;;29.92;16.23;;;;;;;3.91;82.60;101229.44;1705442;84;21019;-60
2023/03/19 06:06:20;;;;;;;28.02;15.80;;;;;;;3.95;82.29;101225.96;1705310;84;21068;-60
2023/03/19 06:08:51;;;;;;;32.53;16.00;;;;;;;4.00;81.89;101225.05;1705354;84;21079;-60
2023/03/19 06:11:38;;;;;;;28.30;15.43;;;;;;;4.03;81.37;101221.58;1705201;83;21031;-61
2023/03/19 06:14:23;;;;;;;32.70;15.85;;;;;;;4.08;80.92;101232.02;1625543;87;21133;-59
2023/03/19 06:16:53;;;;;;;29.57;14.55;;;;;;;4.16;80.31;101236.27;1681525;84;21086;-61
2023/03/19 06:19:23;;;;;;;25.50;13.00;;;;;;;4.17;79.55;101237.98;1705475;83;21505;-60
2023/03/19 06:21:53;;;;;;;22.45;13.38;;;;;;;4.21;79.38;101233.14;1705616;83;21441;-59
2023/03/19 06:24:22;;;;;;;27.58;13.15;;;;;;;4.29;79.02;101238.25;1705361;83;21052;-59
2023/03/19 06:26:50;;;;;;;24.10;11.50;;;;;;;4.33;78.15;101232.05;1705443;83;21055;-61
2023/03/19 06:29:20;;;;;;;26.73;11.85;;;;;;;4.37;77.70;101236.20;1705536;84;21455;-62
2023/03/19 06:31:51;;;;;;;19.02;10.32;;;;;;;4.42;77.22;101235.30;1705299;83;20999;-61
2023/03/19 06:34:27;;;;;;;24.37;11.12;;;;;;;4.48;76.79;101240.17;1704476;84;21496;-59
2023/03/19 06:36:56;;;;;;;36.80;10.93;;;;;;;4.53;76.17;101238.40;1705343;83;21027;-61
2023/03/19 06:39:26;;;;;;;20.72;9.00;;;;;;;4.60;75.86;101242.31;1705415;83;21035;-61
2023/03/19 06:41:55;;;;;;;11.97;6.37;;;;;;;4.68;75.34;101242.47;1671540;84;21463;-61
2023/03/19 06:44:26;;;;;;;18.50;7.45;;;;;;;4.75;74.80;101245.84;1705453;84;21031;-62
2023/03/19 06:46:56;;;;;;;11.78;6.20;;;;;;;4.83;73.81;101241.58;1672508;85;21480;-60
2023/03/19 06:49:26;;;;;;;23.35;6.62;;;;;;;4.91;73.15;101241.23;1705673;83;21035;-60
2023/03/19 06:51:56;;;;;;;11.55;5.33;;;;;;;4.97;72.02;101238.45;1671890;84;21039;-59
2023/03/19 06:54:26;;;;;;;15.13;5.78;;;;;;;5.00;71.27;101243.10;1705127;83;21079;-60
2023/03/19 06:56:55;;;;;;;7.72;4.97;;;;;;;5.03;70.95;101240.60;1705481;84;21059;-62
2023/03/19 06:59:24;;;;;;;18.35;5.65;;;;;;;5.12;70.72;101244.33;1705380;83;21107;-60
2023/03/19 07:01:55;;;;;;;9.30;6.10;;;;;;;5.18;70.26;101236.47;1672083;85;21099;-60
2023/03/19 07:04:25;;;;;;;31.60;7.10;;;;;;;5.24;69.72;101236.43;1672595;85;21059;-62
2023/03/19 07:06:55;;;;;;;27.17;6.33;;;;;;;5.26;69.19;101245.30;1705248;83;21087;-60
2023/03/19 07:09:24;;;;;;;18.23;7.10;;;;;;;5.29;68.87;101236.36;1705421;84;21068;-61
2023/03/19 07:11:54;;;;;;;9.25;6.30;;;;;;;5.36;68.73;101242.08;1705561;83;21036;-61
2023/03/19 07:14:25;;;;;;;13.65;6.53;;;;;;;5.43;68.27;101236.92;1705499;84;21015;-62
2023/03/19 07:16:55;;;;;;;11.65;6.70;;;;;;;5.43;67.79;101241.00;1671604;84;21095;-60
2023/03/19 07:19:27;;;;;;;13.90;6.62;;;;;;;5.45;67.80;101240.36;1705483;83;21087;-60
2023/03/19 07:21:56;;;;;;;8.63;5.15;;;;;;;5.49;67.45;101235.84;1705441;83;21035;-61
2023/03/19 07:24:26;;;;;;;7.72;4.80;;;;;;;5.57;66.95;101237.84;1674863;85;21070;-60
2023/03/19 07:26:57;;;;;;;8.03;5.00;;;;;;;5.62;66.58;101245.06;1708753;84;21063;-61
2023/03/19 07:29:26;;;;;;;17.20;5.28;;;;;;;5.70;66.57;101251.98;1709620;83;21068;-59
2023/03/19 07:31:56;;;;;;;11.35;4.85;;;;;;;5.70;66.30;101246.05;1708657;83;21197;-60
2023/03/19 07:34:26;;;;;;;11.70;4.47;;;;;;;5.74;66.10;101244.75;1707085;83;21048;-60
2023/03/19 07:36:55;;;;;;;13.48;4.50;;;;;;;5.77;65.44;101249.05;1706070;83;21067;-61
2023/03/19 07:39:24;;;;;;;8.58;4.72;;;;;;;5.77;65.42;101252.27;1705818;83;21063;-58
2023/03/19 07:41:53;;;;;;;13.22;4.67;;;;;;;5.73;65.17;101261.22;1672150;84;21048;-60
2023/03/19 07:44:24;;;;;;;11.97;5.20;;;;;;;5.75;65.23;101255.13;1705284;83;21486;-59
2023/03/19 07:46:56;;;;;;;11.50;5.80;;;;;;;5.76;65.29;101255.98;1649089;86;21057;-60
2023/03/19 07:49:26;;;;;;;11.20;6.25;;;;;;;5.79;65.46;101262.49;1648932;86;21021;-59
2023/03/19 07:51:55;;;;;;;19.95;8.15;;;;;;;5.82;65.41;101264.92;1649386;87;21033;-61
2023/03/19 07:54:24;;;;;;;12.53;6.70;;;;;;;5.80;65.32;101252.83;1649092;86;21131;-60
2023/03/19 07:56:54;;;;;;;12.95;7.80;;;;;;;5.76;65.25;101255.48;1649268;86;21057;-60
2023/03/19 07:59:22;;;;;;;19.62;9.08;;;;;;;5.73;65.36;101255.77;1649070;86;21093;-61
2023/03/19 08:01:51;;;;;;;14.05;8.60;;;;;;;5.69;65.66;101248.41;1649089;86;21049;-60
2023/03/19 08:04:21;;;;;;;13.48;8.23;;;;;;;5.72;65.82;101253.56;1649357;86;21069;-61
2023/03/19 08:06:52;;;;;;;12.93;7.83;;;;;;;5.76;65.78;101254.63;1648935;86;21529;-64
2023/03/19 08:09:21;;;;;;;11.70;7.78;;;;;;;5.79;65.24;101251.61;1649461;86;21072;-61
2023/03/19 08:11:53;;;;;;;15.08;8.13;;;;;;;5.79;65.52;101247.03;1683643;84;21040;-61
2023/03/19 08:14:24;;;;;;;12.43;7.20;;;;;;;5.83;65.32;101241.66;1674334;85;21051;-60
2023/03/19 08:16:53;;;;;;;12.50;7.45;;;;;;;5.90;65.15;101244.21;1705399;84;21032;-58
2023/03/19 08:19:23;;;;;;;17.32;8.13;;;;;;;5.93;65.13;101235.75;1705454;83;21035;-60
2023/03/19 08:21:54;;;;;;;16.90;7.90;;;;;;;5.99;65.13;101239.25;1675448;84;21043;-61
2023/03/19 08:24:24;;;;;;;21.40;8.55;;;;;;;6.06;64.83;101245.45;1673924;85;21576;-60
2023/03/19 08:26:53;;;;;;;15.40;8.23;;;;;;;6.04;64.74;101243.74;1704785;83;21031;-61
2023/03/19 08:29:26;;;;;;;10.90;7.30;;;;;;;6.05;64.54;101239.16;1705373;83;21493;-62
2023/03/19 08:31:55;;;;;;;12.07;7.12;;;;;;;6.05;64.70;101239.16;1705847;83;21043;-61
2023/03/19 08:34:24;;;;;;;16.67;7.87;;;;;;;6.09;64.74;101232.92;1673478;84;21111;-61
2023/03/19 08:36:53;;;;;;;22.40;7.92;;;;;;;6.13;64.54;101230.25;1705583;84;21067;-61
2023/03/19 08:39:22;;;;;;;20.80;8.30;;;;;;;6.14;64.40;101227.39;1705741;83;21102;-61
2023/03/19 08:41:53;;;;;;;16.55;7.25;;;;;;;6.17;64.10;101231.67;1705216;83;21031;-59
2023/03/19 08:44:22;;;;;;;24.05;7.70;;;;;;;6.17;63.83;101238.47;1705797;83;21079;-61
2023/03/19 08:46:53;;;;;;;12.30;7.10;;;;;;;6.13;63.75;101227.53;1705529;84;21734;-62
2023/03/19 08:49:22;;;;;;;14.43;8.35;;;;;;;6.18;63.99;101236.97;1674143;84;21031;-61
2023/03/19 08:51:51;;;;;;;11.88;7.62;;;;;;;6.24;64.00;101235.51;1674472;85;21074;-61
2023/03/19 08:54:20;;;;;;;18.48;7.50;;;;;;;6.28;63.85;101230.98;1705640;84;21070;-61
2023/03/19 08:56:51;;;;;;;13.45;7.00;;;;;;;6.33;63.76;101221.00;1705342;84;21475;-61
2023/03/19 08:59:22;;;;;;;13.95;7.87;;;;;;;6.38;63.72;101213.75;1707431;82;21051;-62
2023/03/19 09:01:52;;;;;;;13.88;7.33;;;;;;;6.44;63.72;101219.95;1715062;82;21015;-61
2023/03/19 09:04:21;;;;;;;15.03;8.08;;;;;;;6.49;63.45;101215.77;1717285;83;21050;-62
2023/03/19 09:06:50;;;;;;;18.65;8.48;;;;;;;6.54;63.32;101212.63;1711537;82;21036;-61
2023/03/19 09:09:21;;;;;;;16.93;7.53;;;;;;;6.59;63.05;101208.94;1707380;82;21471;-63
2023/03/19 09:11:51;;;;;;;15.90;8.05;;;;;;;6.59;62.60;101207.58;1698743;84;21441;-61
2023/03/19 09:14:21;;;;;;;13.68;8.23;;;;;;;6.63;62.50;101207.63;1704359;83;21019;-62
2023/03/19 09:16:50;;;;;;;15.65;7.92;;;;;;;6.71;62.40;101201.41;1717471;83;21054;-63
2023/03/19 09:19:19;;;;;;;11.25;7.03;;;;;;;6.78;62.57;101198.42;1717557;83;21085;-62
2023/03/19 09:21:48;;;;;;;16.00;7.67;;;;;;;6.85;62.63;101200.89;1717522;83;21014;-62
2023/03/19 09:24:17;;;;;;;11.63;6.90;;;;;;;6.91;62.15;101190.23;1703761;83;21036;-62
2023/03/19 09:26:48;;;;;;;12.33;7.70;;;;;;;6.92;61.52;101199.26;1700910;84;21039;-63
2023/03/19 09:29:17;;;;;;;13.40;7.60;;;;;;;6.90;61.43;101185.79;1700745;84;21051;-63
2023/03/19 09:31:46;;;;;;;15.60;7.40;;;;;;;6.94;61.60;101182.25;1700461;84;21028;-62
2023/03/19 09:34:15;;;;;;;15.13;7.58;;;;;;;7.08;62.15;101172.67;1698533;83;21492;-63
2023/03/19 09:36:43;;;;;;;12.58;7.05;;;;;;;7.22;61.56;101178.46;1700194;84;21052;-63
2023/03/19 09:39:12;;;;;;;10.90;7.03;;;;;;;7.29;60.69;101176.81;1699982;84;21447;-62
2023/03/19 09:42:11;;;;;;;10.30;6.85;;;;;;;7.31;60.28;101173.42;1716858;83;21011;-62
2023/03/19 09:44:42;;;;;;;13.70;8.20;;;;;;;7.26;59.89;101173.05;1717437;83;21435;-62
2023/03/19 09:47:31;;;;;;;12.37;6.50;;;;;;;7.21;59.51;101171.30;1717459;83;21465;-60
2023/03/19 09:50:15;;;;;;;11.75;6.75;;;;;;;7.18;59.32;101168.03;1717383;82;21621;-62
2023/03/19 09:52:47;;;;;;;12.82;8.35;;;;;;;7.20;60.78;101172.31;1717506;82;21429;-63
2023/03/19 09:55:33;;;;;;;12.47;7.08;;;;;;;7.33;59.61;101176.50;1717525;83;21066;-62
2023/03/19 09:58:13;;;;;;;10.90;6.10;;;;;;;7.35;58.96;101162.20;1717842;82;21050;-62
2023/03/19 10:00:42;;;;;;;12.82;6.17;;;;;;;7.38;58.95;101160.52;1716970;83;20984;-64
2023/03/19 10:03:29;;;;;;;12.33;6.15;;;;;;;7.48;58.59;101155.83;1717545;82;21438;-64
2023/03/19 10:06:28;;;;;;;16.50;7.50;;;;;;;7.57;58.51;101159.82;1708056;82;21123;-64
2023/03/19 10:09:16;;;;;;;9.80;6.05;;;;;;;7.72;58.10;101151.91;1705144;83;21431;-61
2023/03/19 10:12:05;;;;;;;18.95;6.62;;;;;;;7.78;56.80;101148.53;1671199;84;21040;-62
2023/03/19 10:14:45;;;;;;;9.90;6.25;;;;;;;7.76;57.24;101142.38;1702911;83;21047;-61
2023/03/19 10:17:19;;;;;;;14.40;6.28;;;;;;;7.81;57.24;101142.78;1701781;84;21083;-62
2023/03/19 10:19:56;;;;;;;13.62;6.47;;;;;;;7.85;57.10;101134.63;1701774;84;21481;-61
2023/03/19 10:22:29;;;;;;;10.85;6.60;;;;;;;7.87;56.41;101129.00;1701471;83;21071;-63
2023/03/19 10:24:58;;;;;;;11.95;6.30;;;;;;;7.89;56.44;101126.97;1701892;84;21111;-61
2023/03/19 10:27:30;;;;;;;15.05;6.28;;;;;;;7.90;56.37;101121.34;1701320;84;21064;-63
2023/03/19 10:30:01;;;;;;;13.30;5.72;;;;;;;7.94;56.07;101107.73;1701357;83;21055;-60
2023/03/19 10:32:44;;;;;;;10.90;6.55;;;;;;;8.00;55.75;101108.09;1702665;83;21063;-65
2023/03/19 10:35:26;;;;;;;8.80;5.92;;;;;;;8.08;55.50;101111.70;1701888;84;21464;-64
2023/03/19 10:37:56;;;;;;;14.83;6.17;;;;;;;8.11;54.79;101104.56;1702230;84;21459;-62
2023/03/19 10:40:33;;;;;;;8.83;6.33;;;;;;;8.09;54.17;101100.28;1702037;84;21020;-63
2023/03/19 10:43:20;;;;;;;;;;;;;;;8.09;54.54;101100.28;1682179;84;21510;-61
2023/03/19 10:45:50;;;;;;;11.05;6.85;;;;;;;8.06;54.85;101093.28;1702886;84;20189;-61
2023/03/19 10:48:21;;;;;;;10.20;6.67;;;;;;;8.09;54.60;101093.45;1701765;84;21056;-63
2023/03/19 10:51:00;;;;;;;12.20;6.70;;;;;;;8.07;54.51;101094.13;1680244;84;21133;-63
2023/03/19 10:53:37;;;;;;;12.43;6.87;;;;;;;7.95;53.45;101086.75;1701281;83;21141;-63
2023/03/19 10:56:21;;;;;;;8.63;5.20;;;;;;;7.87;53.43;101082.62;1703204;84;21059;-63
2023/03/19 10:59:05;;;;;;;12.60;6.83;;;;;;;7.89;54.00;101079.22;1681682;84;21027;-62
2023/03/19 11:01:37;;;;;;;12.65;7.05;;;;;;;7.92;54.23;101078.39;1704244;84;21071;-61
2023/03/19 11:04:21;;;;;;;15.50;7.50;;;;;;;7.97;54.41;101076.53;1683879;84;21068;-62
2023/03/19 11:06:58;;;;;;;15.25;7.17;;;;;;;8.00;53.46;101061.70;1650926;87;21047;-62
2023/03/19 11:09:40;;;;;;;11.90;6.60;;;;;;;8.00;53.77;101063.06;1629060;87;21127;-61
2023/03/19 11:12:23;;;;;;;11.40;6.95;;;;;;;7.97;53.60;101053.33;1626774;88;21115;-61
2023/03/19 11:14:53;;;;;;;11.40;7.12;;;;;;;7.95;53.93;101048.03;1628449;87;21134;-65
2023/03/19 11:17:42;;;;;;;17.35;8.08;;;;;;;7.97;53.86;101050.60;1608689;88;21110;-64
2023/03/19 11:20:29;;;;;;;9.90;6.83;;;;;;;8.03;54.25;101050.45;1612201;88;21135;-60
2023/03/19 11:23:02;;;;;;;12.43;7.22;;;;;;;8.14;54.16;101051.52;1628592;88;21079;-63
2023/03/19 11:25:43;;;;;;;12.37;7.40;;;;;;;8.19;53.76;101045.05;1667985;85;21055;-64
2023/03/19 11:28:16;;;;;;;10.45;6.40;;;;;;;8.24;53.27;101046.25;1682945;85;21090;-60
2023/03/19 11:31:13;;;;;;;12.95;5.97;;;;;;;8.31;52.87;101053.27;1683080;85;21505;-63
2023/03/19 11:34:32;;;;;;;15.98;6.65;;;;;;;8.39;52.48;101048.36;1682901;85;21509;-62
2023/03/19 11:37:26;;;;;;;12.07;6.58;;;;;;;8.35;51.39;101031.46;1683045;85;21619;-63
2023/03/19 11:40:19;;;;;;;19.05;7.58;;;;;;;8.35;51.29;101042.38;1682900;85;21003;-61
2023/03/19 11:43:18;;;;;;;12.47;6.73;;;;;;;8.38;52.01;101039.83;1683559;85;21099;-62
2023/03/19 11:46:19;;;;;;;9.15;5.78;;;;;;;8.42;51.83;101035.73;1683072;85;21435;-62
2023/03/19 11:49:06;;;;;;;10.15;6.60;;;;;;;8.42;50.38;101028.91;1682934;85;21079;-64
2023/03/19 11:51:50;;;;;;;10.90;6.67;;;;;;;8.41;50.88;101029.42;1683213;84;21043;-62